Time;durP1;ratioP1;P1;durP2;ratioP2;P2;SDS_P1;SDS_P2;PMS_P1;PMS_P2;Temp;Humidity;BMP_temperature;BMP_pressure;BME280_temperature;BME280_humidity;BME280_pressure;Samples;Min_cycle;Max_cycle;Signal;HPM_P1;HPM_P2
2023/03/11 00:01:07;;;;;;;12.27;11.10;;;10.60;99.90;;;;;;6185966;28;20477;-63
2023/03/11 00:04:10;;;;;;;12.83;11.53;;;10.60;99.90;;;;;;6188223;28;20489;-61
2023/03/11 00:07:13;;;;;;;12.23;10.80;;;10.50;99.90;;;;;;6190888;28;20465;-62
2023/03/11 00:10:20;;;;;;;12.50;10.80;;;10.40;99.90;;;;;;6188075;28;20477;-62
2023/03/11 00:13:24;;;;;;;12.10;10.80;;;10.40;99.90;;;;;;6200751;28;20820;-62
2023/03/11 00:16:27;;;;;;;11.20;10.00;;;10.40;99.90;;;;;;6201000;28;20504;-62
2023/03/11 00:19:30;;;;;;;11.00;9.63;;;10.30;99.90;;;;;;6201869;28;20539;-62
2023/03/11 00:22:33;;;;;;;12.03;10.83;;;10.40;99.90;;;;;;6202099;28;20492;-62
2023/03/11 00:25:39;;;;;;;14.13;11.30;;;10.30;99.90;;;;;;6200763;28;20476;-62
2023/03/11 00:28:42;;;;;;;13.90;11.47;;;10.20;99.90;;;;;;6200704;28;20476;-62
2023/03/11 00:31:46;;;;;;;17.37;12.57;;;10.10;99.90;;;;;;6200701;28;20472;-65
2023/03/11 00:34:49;;;;;;;12.70;11.40;;;10.00;99.90;;;;;;6200724;28;20469;-66
2023/03/11 00:37:55;;;;;;;11.63;10.13;;;9.90;99.90;;;;;;6200523;28;20500;-66
2023/03/11 00:41:00;;;;;;;10.53;9.60;;;9.80;99.90;;;;;;6200460;28;20977;-66
2023/03/11 00:44:04;;;;;;;11.83;9.60;;;9.80;99.90;;;;;;6200866;28;20965;-66
2023/03/11 00:47:08;;;;;;;10.13;9.23;;;9.70;99.90;;;;;;6200705;28;20484;-65
2023/03/11 00:50:17;;;;;;;9.87;8.83;;;9.80;99.90;;;;;;6200601;28;20480;-66
2023/03/11 00:53:21;;;;;;;9.80;8.87;;;9.70;99.90;;;;;;6200697;28;21055;-65
2023/03/11 00:56:26;;;;;;;8.80;7.90;;;9.70;99.90;;;;;;6200280;28;20480;-66
2023/03/11 00:59:29;;;;;;;9.13;8.20;;;9.70;99.90;;;;;;6202186;28;20477;-66
2023/03/11 01:02:34;;;;;;;8.30;7.10;;;9.70;99.90;;;;;;6215749;28;20477;-66
2023/03/11 01:05:38;;;;;;;8.63;7.83;;;9.70;99.90;;;;;;6207802;28;20444;-66
2023/03/11 01:08:41;;;;;;;8.80;7.80;;;9.80;99.90;;;;;;6205586;28;20476;-66
2023/03/11 01:11:46;;;;;;;8.57;7.60;;;9.70;99.90;;;;;;6196676;28;20892;-66
2023/03/11 01:14:49;;;;;;;7.87;7.07;;;9.70;99.90;;;;;;6205104;28;20448;-66
2023/03/11 01:17:52;;;;;;;7.77;6.97;;;9.70;99.90;;;;;;6205370;28;20603;-66
2023/03/11 01:20:56;;;;;;;7.63;6.67;;;9.70;99.90;;;;;;6205055;28;20820;-66
2023/03/11 01:23:59;;;;;;;10.87;7.63;;;9.60;99.90;;;;;;6204949;28;20504;-66
2023/03/11 01:27:04;;;;;;;15.30;10.90;;;9.60;99.90;;;;;;6204513;28;20475;-66
2023/03/11 01:30:09;;;;;;;9.30;8.17;;;9.60;99.90;;;;;;6204571;28;20472;-66
2023/03/11 01:33:16;;;;;;;9.17;7.67;;;9.60;99.90;;;;;;6204683;28;20793;-66
2023/03/11 01:36:19;;;;;;;9.40;8.37;;;9.60;99.90;;;;;;6204755;28;20468;-65
2023/03/11 01:39:23;;;;;;;8.80;7.90;;;9.50;99.90;;;;;;6204088;28;20480;-66
2023/03/11 01:42:27;;;;;;;9.20;7.67;;;9.50;99.90;;;;;;6204346;28;20841;-66
2023/03/11 01:45:40;;;;;;;7.67;7.00;;;9.40;99.90;;;;;;6204536;28;20473;-66
2023/03/11 01:48:47;;;;;;;9.57;6.67;;;9.40;99.90;;;;;;6204093;28;20480;-65
2023/03/11 01:51:52;;;;;;;7.57;6.60;;;9.30;99.90;;;;;;6204486;28;20491;-65
2023/03/11 01:54:55;;;;;;;6.90;6.30;;;9.20;99.90;;;;;;6203981;28;20480;-66
2023/03/11 01:58:02;;;;;;;9.20;7.10;;;9.20;99.90;;;;;;6204267;28;20485;-66
2023/03/11 02:01:06;;;;;;;8.27;6.33;;;9.20;99.90;;;;;;6204302;28;20479;-66
2023/03/11 02:04:10;;;;;;;5.83;5.33;;;9.10;99.90;;;;;;6204187;28;20469;-67
2023/03/11 02:07:14;;;;;;;9.47;6.50;;;9.10;99.90;;;;;;6204297;28;20468;-64
2023/03/11 02:10:18;;;;;;;12.67;10.17;;;8.90;99.90;;;;;;6203360;28;20476;-66
2023/03/11 02:13:23;;;;;;;8.20;6.20;;;8.80;99.90;;;;;;6203200;28;20770;-65
2023/03/11 02:16:27;;;;;;;6.67;5.63;;;8.70;99.90;;;;;;6199357;28;20472;-66
2023/03/11 02:19:39;;;;;;;9.63;7.13;;;8.70;99.90;;;;;;6203637;28;20485;-66
2023/03/11 02:22:43;;;;;;;5.80;5.23;;;8.70;99.90;;;;;;6203760;28;20476;-66
2023/03/11 02:25:52;;;;;;;5.00;4.53;;;8.70;99.90;;;;;;6203668;28;20465;-66
2023/03/11 02:28:58;;;;;;;5.60;5.00;;;8.70;99.90;;;;;;6203280;28;20574;-64
2023/03/11 02:32:06;;;;;;;6.87;5.37;;;8.60;99.90;;;;;;6203492;28;20969;-65
2023/03/11 02:35:09;;;;;;;5.10;4.23;;;8.60;99.90;;;;;;6203165;28;20473;-65
2023/03/11 02:38:13;;;;;;;5.90;4.93;;;8.50;99.90;;;;;;6203099;28;20488;-65
2023/03/11 02:41:16;;;;;;;5.40;4.90;;;8.50;99.90;;;;;;6203295;28;20468;-65
2023/03/11 02:44:21;;;;;;;6.40;5.77;;;8.40;99.90;;;;;;6203461;28;20472;-65
2023/03/11 02:47:25;;;;;;;5.10;4.60;;;8.50;99.90;;;;;;6203442;28;20476;-64
2023/03/11 02:50:30;;;;;;;4.17;3.43;;;8.50;99.90;;;;;;6202926;28;20492;-65
2023/03/11 02:53:39;;;;;;;4.13;3.83;;;8.60;99.90;;;;;;6202794;28;20481;-65
2023/03/11 02:56:42;;;;;;;4.10;3.57;;;8.60;99.90;;;;;;6203115;28;20544;-66
2023/03/11 02:59:47;;;;;;;4.30;3.90;;;8.60;99.90;;;;;;6203334;28;20476;-66
2023/03/11 03:02:52;;;;;;;7.10;5.00;;;8.50;99.90;;;;;;6203078;28;20445;-65
2023/03/11 03:05:55;;;;;;;6.17;5.57;;;8.50;99.90;;;;;;6202814;28;20603;-65
2023/03/11 03:08:58;;;;;;;4.80;4.30;;;8.50;99.90;;;;;;6202360;28;20484;-66
2023/03/11 03:12:02;;;;;;;5.00;4.47;;;8.40;99.90;;;;;;6202338;28;20798;-65
2023/03/11 03:15:08;;;;;;;4.97;4.57;;;8.40;99.90;;;;;;6202729;28;20465;-65
2023/03/11 03:18:11;;;;;;;4.50;4.10;;;8.30;99.90;;;;;;6202543;28;20487;-64
2023/03/11 03:21:15;;;;;;;4.27;3.97;;;8.30;99.90;;;;;;6202510;28;20473;-64
2023/03/11 03:24:18;;;;;;;3.80;3.43;;;8.20;99.90;;;;;;6200930;28;20952;-65
2023/03/11 03:27:21;;;;;;;3.80;3.50;;;8.20;99.90;;;;;;6202189;28;20969;-64
2023/03/11 03:30:27;;;;;;;5.60;3.80;;;8.20;99.90;;;;;;6202570;28;20469;-64
2023/03/11 03:33:31;;;;;;;4.57;3.43;;;7.90;99.90;;;;;;6202454;28;20511;-64
2023/03/11 03:36:34;;;;;;;3.63;3.33;;;8.00;99.90;;;;;;6202205;28;20465;-64
2023/03/11 03:39:37;;;;;;;4.37;2.83;;;8.00;99.90;;;;;;6201627;28;20480;-65
2023/03/11 03:42:41;;;;;;;2.70;2.50;;;8.00;99.90;;;;;;6201754;28;20468;-65
2023/03/11 03:45:45;;;;;;;2.83;2.63;;;8.10;99.90;;;;;;6201281;28;20477;-65
2023/03/11 03:48:48;;;;;;;2.53;2.33;;;8.00;99.90;;;;;;6201364;28;20693;-66
2023/03/11 03:51:52;;;;;;;3.17;2.87;;;8.00;99.90;;;;;;6201228;28;21015;-66
2023/03/11 03:54:55;;;;;;;2.93;2.57;;;8.00;99.90;;;;;;6203140;28;20484;-65
2023/03/11 03:57:58;;;;;;;1.77;1.47;;;8.00;99.90;;;;;;6201722;28;20487;-65
2023/03/11 04:01:03;;;;;;;2.13;1.50;;;8.10;99.40;;;;;;6200956;28;20468;-66
2023/03/11 04:04:07;;;;;;;1.80;1.70;;;8.10;97.40;;;;;;6200538;28;20527;-66
2023/03/11 04:07:10;;;;;;;1.07;1.00;;;8.30;97.50;;;;;;6200701;28;20789;-64
2023/03/11 04:10:14;;;;;;;0.70;0.70;;;8.30;93.30;;;;;;6199746;28;20914;-66
2023/03/11 04:13:17;;;;;;;0.80;0.60;;;8.50;90.90;;;;;;6199149;28;20483;-66
2023/03/11 04:16:23;;;;;;;1.00;0.80;;;8.60;81.90;;;;;;6200206;28;20484;-66
2023/03/11 04:19:27;;;;;;;0.70;0.70;;;8.70;80.60;;;;;;6200742;28;20473;-66
2023/03/11 04:22:30;;;;;;;0.70;0.70;;;8.80;76.90;;;;;;6200977;28;20507;-66
2023/03/11 04:25:33;;;;;;;0.60;0.50;;;8.90;75.30;;;;;;6201004;28;20469;-65
2023/03/11 04:28:36;;;;;;;0.60;0.50;;;9.00;73.80;;;;;;6202521;28;20830;-65
2023/03/11 04:31:41;;;;;;;0.57;0.57;;;9.10;70.70;;;;;;6207535;28;20490;-64
2023/03/11 04:34:44;;;;;;;1.63;0.77;;;9.00;67.50;;;;;;6210716;28;20480;-65
2023/03/11 04:37:47;;;;;;;0.73;0.60;;;9.10;66.20;;;;;;6203475;28;20484;-64
2023/03/11 04:40:51;;;;;;;1.20;0.70;;;9.10;65.70;;;;;;6200675;28;20484;-66
2023/03/11 04:43:54;;;;;;;0.70;0.70;;;9.10;64.60;;;;;;6200901;28;20487;-65
2023/03/11 04:46:58;;;;;;;2.07;0.80;;;9.10;64.90;;;;;;6200562;28;20487;-65
2023/03/11 04:50:02;;;;;;;1.23;0.70;;;9.10;62.90;;;;;;6200596;28;20488;-65
2023/03/11 04:53:05;;;;;;;1.63;0.83;;;9.20;62.30;;;;;;6200547;28;20473;-65
2023/03/11 04:56:08;;;;;;;0.60;0.60;;;9.10;61.40;;;;;;6200993;28;20473;-65
2023/03/11 04:59:11;;;;;;;0.60;0.60;;;9.10;59.60;;;;;;6200280;28;20487;-65
2023/03/11 05:02:16;;;;;;;0.70;0.70;;;9.10;58.80;;;;;;6200618;28;20468;-65
2023/03/11 05:05:19;;;;;;;0.70;0.70;;;9.10;58.10;;;;;;6200207;28;20811;-65
2023/03/11 05:08:22;;;;;;;0.70;0.70;;;9.10;58.50;;;;;;6200168;28;20473;-65
2023/03/11 05:11:25;;;;;;;0.60;0.60;;;9.20;58.90;;;;;;6200079;28;20477;-65
2023/03/11 05:14:29;;;;;;;0.63;0.63;;;9.10;59.60;;;;;;6199939;28;20491;-65
2023/03/11 05:17:33;;;;;;;0.70;0.70;;;9.10;60.70;;;;;;6200235;28;20476;-64
2023/03/11 05:20:36;;;;;;;0.60;0.60;;;9.10;59.90;;;;;;6199901;28;20786;-65
2023/03/11 05:23:40;;;;;;;0.87;0.70;;;9.10;60.20;;;;;;6200000;28;20444;-66
2023/03/11 05:26:43;;;;;;;0.63;0.63;;;9.10;59.40;;;;;;6200699;28;20448;-67
2023/03/11 05:29:47;;;;;;;0.63;0.53;;;9.10;60.00;;;;;;6199787;28;20477;-66
2023/03/11 05:32:52;;;;;;;1.00;0.50;;;9.10;59.50;;;;;;6200181;28;20444;-66
2023/03/11 05:35:55;;;;;;;0.70;0.70;;;9.10;58.80;;;;;;6200533;28;20469;-65
2023/03/11 05:38:58;;;;;;;0.70;0.70;;;9.10;57.90;;;;;;6199742;28;20470;-65
2023/03/11 05:42:02;;;;;;;0.63;0.63;;;9.10;57.70;;;;;;6199800;28;20967;-65
2023/03/11 05:45:05;;;;;;;0.87;0.50;;;9.10;57.20;;;;;;6200101;28;20972;-65
2023/03/11 05:48:10;;;;;;;0.60;0.60;;;9.10;56.70;;;;;;6190410;28;20984;-66
2023/03/11 05:51:13;;;;;;;0.67;0.60;;;9.10;56.90;;;;;;6187341;28;20473;-65
2023/03/11 05:54:17;;;;;;;0.80;0.80;;;9.10;56.70;;;;;;6191665;28;20476;-66
2023/03/11 05:57:20;;;;;;;0.50;0.50;;;9.10;57.40;;;;;;6192701;28;20488;-65
2023/03/11 06:00:24;;;;;;;3.70;1.13;;;9.10;56.90;;;;;;6191066;28;20466;-66
2023/03/11 06:03:28;;;;;;;1.47;1.37;;;9.10;56.80;;;;;;6190155;28;20973;-66
2023/03/11 06:06:32;;;;;;;0.90;0.90;;;9.00;56.50;;;;;;6191432;28;20480;-66
2023/03/11 06:09:35;;;;;;;0.60;0.60;;;9.00;56.10;;;;;;6190632;28;20544;-66
2023/03/11 06:12:39;;;;;;;0.77;0.77;;;9.00;56.10;;;;;;6189166;28;20468;-66
2023/03/11 06:15:44;;;;;;;0.93;0.80;;;9.00;56.70;;;;;;6185090;28;20465;-66
2023/03/11 06:18:49;;;;;;;0.70;0.70;;;8.90;56.20;;;;;;6186610;28;20985;-66
2023/03/11 06:21:52;;;;;;;1.03;0.93;;;9.00;56.30;;;;;;6184395;28;20469;-66
2023/03/11 06:24:55;;;;;;;0.97;0.73;;;9.00;56.40;;;;;;6194622;28;20977;-67
2023/03/11 06:27:59;;;;;;;0.70;0.70;;;9.10;56.30;;;;;;6192901;28;20473;-65
2023/03/11 06:31:09;;;;;;;0.70;0.70;;;9.20;55.90;;;;;;6183073;28;20804;-66
2023/03/11 06:34:13;;;;;;;1.70;0.70;;;9.30;55.50;;;;;;6192725;28;20474;-66
2023/03/11 06:37:17;;;;;;;0.63;0.63;;;9.30;54.80;;;;;;6191734;28;21022;-65
2023/03/11 06:40:20;;;;;;;0.57;0.57;;;9.40;54.90;;;;;;6190539;28;20961;-65
2023/03/11 06:43:23;;;;;;;0.77;0.77;;;9.30;52.80;;;;;;6179263;28;20482;-66
2023/03/11 06:46:26;;;;;;;1.43;0.70;;;9.30;53.80;;;;;;6179012;28;20469;-66
2023/03/11 06:49:31;;;;;;;0.60;0.60;;;9.40;53.40;;;;;;6178831;28;20492;-65
2023/03/11 06:52:34;;;;;;;0.60;0.60;;;9.40;53.00;;;;;;6178853;28;20478;-66
2023/03/11 06:55:37;;;;;;;2.10;0.97;;;9.40;52.90;;;;;;6179225;28;20470;-67
2023/03/11 06:58:42;;;;;;;0.90;0.70;;;9.40;52.90;;;;;;6179722;28;20470;-66
2023/03/11 07:01:45;;;;;;;0.87;0.77;;;9.50;52.70;;;;;;6178987;28;20813;-66
2023/03/11 07:04:51;;;;;;;0.70;0.63;;;9.50;51.60;;;;;;6178857;28;20477;-65
2023/03/11 07:07:55;;;;;;;1.00;0.73;;;9.50;50.60;;;;;;6178064;28;20474;-65
2023/03/11 07:11:03;;;;;;;0.80;0.80;;;9.50;50.30;;;;;;6178676;28;20513;-66
2023/03/11 07:14:06;;;;;;;0.60;0.50;;;9.50;50.10;;;;;;6177989;28;20474;-66
2023/03/11 07:17:10;;;;;;;1.57;0.77;;;9.60;50.20;;;;;;6178436;28;20470;-65
2023/03/11 07:20:14;;;;;;;0.70;0.57;;;9.70;49.40;;;;;;6178272;28;20474;-65
2023/03/11 07:23:18;;;;;;;0.60;0.50;;;9.90;49.20;;;;;;6177782;28;20485;-66
2023/03/11 07:26:23;;;;;;;0.63;0.50;;;10.00;47.80;;;;;;6177876;28;20819;-66
2023/03/11 07:29:26;;;;;;;0.70;0.70;;;10.10;47.80;;;;;;6177734;28;20495;-66
2023/03/11 07:32:30;;;;;;;0.60;0.60;;;10.20;47.30;;;;;;6177548;28;20496;-66
2023/03/11 07:35:35;;;;;;;0.60;0.60;;;10.30;46.30;;;;;;6177384;28;20469;-66
2023/03/11 07:38:41;;;;;;;0.60;0.60;;;10.40;46.70;;;;;;6177915;28;20572;-66
2023/03/11 07:41:45;;;;;;;0.70;0.60;;;10.40;46.70;;;;;;6178199;28;20434;-66
2023/03/11 07:44:51;;;;;;;2.00;0.60;;;10.50;46.20;;;;;;6178375;28;20457;-66
2023/03/11 07:47:54;;;;;;;2.00;0.70;;;10.40;45.20;;;;;;6181308;28;20454;-65
2023/03/11 07:51:04;;;;;;;0.70;0.70;;;10.50;45.30;;;;;;6179694;28;20454;-65
2023/03/11 07:54:07;;;;;;;0.73;0.73;;;10.70;45.00;;;;;;6178055;28;20576;-66
2023/03/11 07:57:15;;;;;;;0.60;0.60;;;12.10;44.80;;;;;;6177727;28;20957;-66
2023/03/11 08:00:19;;;;;;;2.60;0.50;;;15.90;38.70;;;;;;6177733;28;20470;-66
2023/03/11 08:03:24;;;;;;;7.10;0.90;;;18.80;31.60;;;;;;6177873;28;20473;-66
2023/03/11 08:06:30;;;;;;;0.80;0.40;;;20.90;27.80;;;;;;6177558;28;20540;-66
2023/03/11 08:09:35;;;;;;;1.27;0.40;;;22.40;25.70;;;;;;6176382;28;20230;-67
2023/03/11 08:12:38;;;;;;;2.70;0.90;;;23.20;23.10;;;;;;6177272;28;20312;-66
2023/03/11 08:15:41;;;;;;;1.63;0.40;;;25.30;21.50;;;;;;6177049;28;20222;-66
2023/03/11 08:18:46;;;;;;;1.00;0.60;;;27.50;19.20;;;;;;6176973;28;20229;-66
2023/03/11 08:21:51;;;;;;;1.00;0.33;;;28.70;16.30;;;;;;6177076;28;20225;-66
2023/03/11 08:24:55;;;;;;;1.27;0.40;;;28.60;15.60;;;;;;6176948;28;20603;-65
2023/03/11 08:27:58;;;;;;;0.80;0.20;;;28.40;15.90;;;;;;6176899;28;20252;-66
2023/03/11 08:31:01;;;;;;;2.30;0.63;;;28.80;15.10;;;;;;6176728;28;20244;-67
2023/03/11 08:34:07;;;;;;;1.00;0.50;;;27.80;15.20;;;;;;6176909;28;20309;-66
2023/03/11 08:37:11;;;;;;;1.50;1.30;;;27.50;15.10;;;;;;6176479;28;20689;-64
2023/03/11 08:40:15;;;;;;;1.60;0.53;;;27.70;15.40;;;;;;6176609;28;20559;-66
2023/03/11 08:43:18;;;;;;;2.70;0.40;;;27.70;14.80;;;;;;6177234;28;20233;-66
2023/03/11 08:46:25;;;;;;;2.23;0.50;;;28.00;14.30;;;;;;6189157;28;20572;-66
2023/03/11 08:49:28;;;;;;;0.90;0.40;;;28.60;13.80;;;;;;6189267;28;20243;-66
2023/03/11 08:52:33;;;;;;;0.90;0.40;;;29.30;14.20;;;;;;6188241;28;20225;-66
2023/03/11 08:55:36;;;;;;;1.10;0.60;;;29.40;13.30;;;;;;6200638;28;20236;-66
2023/03/11 08:58:39;;;;;;;0.70;0.40;;;29.70;13.30;;;;;;6200629;28;20229;-65
2023/03/11 09:01:42;;;;;;;1.35;0.65;;;30.20;15.30;;;;;;6194100;28;20228;-65
2023/03/11 09:04:45;;;;;;;1.50;0.57;;;30.60;13.60;;;;;;6177162;28;20233;-66
2023/03/11 09:07:50;;;;;;;0.90;0.40;;;30.60;13.30;;;;;;6188533;28;20229;-66
2023/03/11 09:10:54;;;;;;;0.93;0.47;;;31.00;13.00;;;;;;6187524;28;20225;-65
2023/03/11 09:13:57;;;;;;;1.23;0.60;;;32.40;12.10;;;;;;6187814;28;20337;-65
2023/03/11 09:17:00;;;;;;;1.98;0.60;;;34.10;11.30;;;;;;6185217;28;20233;-66
2023/03/11 09:20:04;;;;;;;1.35;0.68;;;33.80;9.60;;;;;;6176890;28;20333;-66
2023/03/11 09:23:12;;;;;;;1.70;0.30;;;32.00;10.30;;;;;;6180923;28;20244;-64
2023/03/11 09:26:15;;;;;;;0.70;0.50;;;31.30;10.90;;;;;;6181124;28;20728;-64
2023/03/11 09:29:18;;;;;;;1.92;0.43;;;31.50;10.80;;;;;;6180491;28;20237;-64
2023/03/11 09:32:22;;;;;;;0.70;0.50;;;31.70;11.10;;;;;;6180347;28;20248;-64
2023/03/11 09:35:25;;;;;;;4.20;0.60;;;31.80;10.70;;;;;;6181085;28;20229;-63
2023/03/11 09:38:30;;;;;;;0.80;0.40;;;32.30;10.20;;;;;;6180661;28;20265;-64
2023/03/11 09:41:41;;;;;;;1.55;0.40;;;32.00;9.80;;;;;;6179985;28;20716;-64
2023/03/11 09:45:03;;;;;;;1.00;0.65;;;31.80;10.40;;;;;;6200761;28;20240;-64
2023/03/11 09:48:19;;;;;;;1.00;0.60;;;31.20;10.60;;;;;;6198152;28;20244;-64
2023/03/11 09:51:29;;;;;;;0.82;0.60;;;30.60;10.50;;;;;;6191407;28;20697;-64
2023/03/11 09:54:40;;;;;;;1.02;0.40;;;30.00;11.20;;;;;;6190943;28;20233;-64
2023/03/11 09:57:44;;;;;;;0.60;0.40;;;31.40;11.00;;;;;;6186233;28;20230;-64
2023/03/11 10:00:50;;;;;;;0.68;0.32;;;31.90;10.50;;;;;;6177824;28;20233;-66
2023/03/11 10:03:57;;;;;;;1.17;0.65;;;33.50;9.70;;;;;;6179268;28;20237;-66
2023/03/11 10:07:09;;;;;;;0.95;0.47;;;33.40;9.30;;;;;;6179027;28;20240;-63
2023/03/11 10:10:16;;;;;;;0.70;0.40;;;33.70;8.80;;;;;;6178252;28;20242;-63
2023/03/11 10:13:29;;;;;;;1.13;0.60;;;33.70;8.50;;;;;;6179263;28;20230;-63
2023/03/11 10:16:38;;;;;;;3.85;0.68;;;34.60;8.40;;;;;;6180051;28;20233;-63
2023/03/11 10:19:46;;;;;;;0.70;0.40;;;34.60;8.40;;;;;;6180073;28;20534;-63
2023/03/11 10:23:03;;;;;;;2.05;0.40;;;34.90;8.30;;;;;;6179660;28;20540;-62
2023/03/11 10:26:13;;;;;;;1.33;0.60;;;35.90;7.90;;;;;;6179778;28;20570;-63
2023/03/11 10:29:20;;;;;;;2.17;0.50;;;36.50;7.70;;;;;;6179451;28;20234;-63
2023/03/11 10:32:28;;;;;;;1.38;0.40;;;37.20;7.40;;;;;;6178754;28;20225;-63
2023/03/11 10:35:39;;;;;;;1.30;0.55;;;37.60;7.00;;;;;;6179281;28;20237;-62
2023/03/11 10:38:46;;;;;;;0.70;0.50;;;37.90;6.90;;;;;;6179227;28;20241;-63
2023/03/11 10:41:54;;;;;;;3.60;1.20;;;37.20;6.90;;;;;;6175446;28;20274;-63
2023/03/11 10:44:57;;;;;;;0.85;0.50;;;37.80;6.90;;;;;;6179247;28;20569;-63
2023/03/11 10:48:00;;;;;;;0.90;0.40;;;37.90;6.60;;;;;;6179122;28;20229;-63
2023/03/11 10:51:14;;;;;;;1.35;0.50;;;38.60;6.00;;;;;;6179641;28;20229;-63
2023/03/11 10:54:27;;;;;;;1.88;0.55;;;37.10;6.50;;;;;;6179497;28;20268;-63
2023/03/11 10:57:34;;;;;;;1.00;0.50;;;37.50;6.40;;;;;;6180399;28;20230;-66
2023/03/11 11:00:37;;;;;;;0.70;0.40;;;36.50;6.90;;;;;;6180139;28;20236;-66
2023/03/11 11:03:43;;;;;;;0.73;0.40;;;36.60;6.70;;;;;;6180187;28;20225;-66
2023/03/11 11:06:46;;;;;;;0.90;0.50;;;37.00;6.20;;;;;;6179150;28;20229;-66
2023/03/11 11:10:14;;;;;;;0.73;0.40;;;37.00;6.50;;;;;;6179489;28;20236;-66
2023/03/11 11:13:21;;;;;;;4.13;0.70;;;35.30;6.80;;;;;;6178884;28;20245;-64
2023/03/11 11:16:25;;;;;;;0.88;0.50;;;34.20;7.80;;;;;;6178796;28;20233;-63
2023/03/11 11:19:29;;;;;;;0.88;0.50;;;35.80;7.00;;;;;;6178406;28;20327;-63
2023/03/11 11:22:32;;;;;;;1.42;0.40;;;37.00;7.30;;;;;;6178447;28;20229;-62
2023/03/11 11:25:37;;;;;;;0.70;0.30;;;38.10;5.80;;;;;;6178784;28;20237;-63
2023/03/11 11:28:43;;;;;;;1.15;0.50;;;38.50;6.50;;;;;;6178336;28;20237;-63
2023/03/11 11:31:47;;;;;;;1.27;0.52;;;37.10;6.50;;;;;;6178540;28;20233;-66
2023/03/11 11:35:00;;;;;;;1.02;0.40;;;36.50;6.70;;;;;;6178046;28;20241;-65
2023/03/11 11:38:05;;;;;;;1.05;0.45;;;36.90;8.70;;;;;;6177914;28;20233;-65
2023/03/11 11:41:15;;;;;;;1.95;0.60;;;37.40;8.20;;;;;;6178440;28;20225;-64
2023/03/11 11:44:22;;;;;;;1.00;0.40;;;35.80;8.20;;;;;;6179490;28;20230;-67
2023/03/11 11:47:30;;;;;;;1.58;0.63;;;36.60;8.40;;;;;;6169903;28;20233;-64
2023/03/11 11:50:35;;;;;;;1.33;0.40;;;35.30;7.60;;;;;;6178149;28;20244;-67
2023/03/11 11:53:45;;;;;;;1.40;0.50;;;34.50;7.90;;;;;;6194336;28;20248;-67
2023/03/11 11:56:48;;;;;;;0.80;0.50;;;34.50;7.40;;;;;;6201975;28;20514;-67
2023/03/11 11:59:53;;;;;;;0.95;0.40;;;34.10;7.50;;;;;;6196470;28;20284;-67
2023/03/11 12:03:18;;;;;;;3.55;0.65;;;33.80;7.50;;;;;;6186238;28;20296;-66
2023/03/11 12:06:29;;;;;;;0.70;0.38;;;34.20;7.50;;;;;;6203507;28;20272;-65
2023/03/11 12:09:40;;;;;;;0.60;0.30;;;33.00;7.90;;;;;;6203173;28;20233;-68
2023/03/11 12:12:52;;;;;;;0.82;0.40;;;35.00;7.80;;;;;;6202221;28;20231;-66
2023/03/11 12:16:05;;;;;;;0.98;0.60;;;35.10;7.30;;;;;;6186356;28;20229;-66
2023/03/11 12:19:19;;;;;;;1.10;0.60;;;34.50;7.40;;;;;;6177189;28;20720;-66
2023/03/11 12:22:52;;;;;;;0.80;0.50;;;33.30;7.80;;;;;;6177137;28;20233;-68
2023/03/11 12:26:04;;;;;;;0.90;0.40;;;33.90;7.60;;;;;;6177320;28;20252;-65
2023/03/11 12:29:16;;;;;;;1.13;0.57;;;34.50;7.40;;;;;;6177079;28;20244;-67
2023/03/11 12:32:27;;;;;;;1.23;0.52;;;33.20;7.70;;;;;;6181311;28;20554;-67
2023/03/11 12:35:32;;;;;;;1.05;0.50;;;32.20;7.90;;;;;;6181660;28;20757;-66
2023/03/11 12:38:38;;;;;;;1.67;0.85;;;31.00;8.50;;;;;;6192511;28;20237;-67
2023/03/11 12:41:42;;;;;;;4.65;0.95;;;31.60;8.60;;;;;;6189426;28;20217;-67
2023/03/11 12:44:47;;;;;;;1.52;0.52;;;31.30;8.40;;;;;;6187842;28;20634;-66
2023/03/11 12:48:31;;;;;;;1.58;0.52;;;31.00;8.50;;;;;;6187587;28;20221;-65
2023/03/11 12:51:42;;;;;;;1.02;0.45;;;31.90;8.10;;;;;;6189322;28;20228;-67
2023/03/11 12:54:46;;;;;;;0.90;0.50;;;32.00;8.40;;;;;;6188202;28;20240;-66
2023/03/11 12:57:54;;;;;;;1.10;0.50;;;32.80;7.80;;;;;;6185440;28;20229;-67
2023/03/11 13:01:20;;;;;;;0.73;0.50;;;32.50;7.50;;;;;;6183634;28;20233;-67
2023/03/11 13:04:39;;;;;;;1.02;0.60;;;33.00;7.20;;;;;;6197908;28;20225;-67
2023/03/11 13:07:47;;;;;;;0.90;0.52;;;34.60;7.00;;;;;;6188218;28;20245;-66
2023/03/11 13:10:52;;;;;;;0.80;0.43;;;34.00;6.80;;;;;;6192959;28;20681;-67
2023/03/11 13:14:10;;;;;;;0.90;0.50;;;33.80;7.10;;;;;;6184713;28;20538;-66
2023/03/11 13:17:29;;;;;;;1.05;0.50;;;34.20;7.20;;;;;;6184652;28;20229;-66
2023/03/11 13:20:49;;;;;;;1.27;0.60;;;35.60;6.90;;;;;;6196659;28;20575;-69
2023/03/11 13:24:13;;;;;;;1.25;0.63;;;34.90;6.60;;;;;;6208000;28;20500;-67
2023/03/11 13:27:31;;;;;;;1.08;0.57;;;34.60;6.80;;;;;;6204545;28;20232;-66
2023/03/11 13:30:41;;;;;;;1.55;0.90;;;34.80;6.90;;;;;;6184321;28;20294;-67
2023/03/11 13:33:51;;;;;;;1.05;0.60;;;34.40;7.00;;;;;;6193653;28;20240;-66
2023/03/11 13:37:16;;;;;;;0.85;0.68;;;34.10;7.00;;;;;;6194887;28;20229;-65
2023/03/11 13:40:32;;;;;;;1.27;0.95;;;32.80;7.10;;;;;;6208000;28;20291;-65
2023/03/11 13:43:43;;;;;;;1.08;0.80;;;30.80;8.50;;;;;;6192512;28;20230;-66
2023/03/11 13:46:49;;;;;;;1.27;0.50;;;30.40;8.50;;;;;;6199125;28;20656;-65
2023/03/11 13:49:59;;;;;;;1.83;0.60;;;28.20;9.20;;;;;;6207418;28;20343;-65
2023/03/11 13:53:10;;;;;;;1.00;0.70;;;25.70;10.50;;;;;;6207857;28;20677;-65
2023/03/11 13:56:18;;;;;;;1.20;0.70;;;23.10;12.10;;;;;;6207614;28;20564;-63
2023/03/11 13:59:24;;;;;;;3.73;1.17;;;21.20;13.10;;;;;;6207928;28;20325;-64
2023/03/11 14:02:28;;;;;;;1.63;1.00;;;19.90;14.60;;;;;;6207428;28;20524;-64
2023/03/11 14:05:33;;;;;;;0.97;0.70;;;18.20;15.10;;;;;;6195890;28;20666;-64
2023/03/11 14:08:39;;;;;;;1.17;0.60;;;17.10;16.10;;;;;;6184085;28;20237;-67
2023/03/11 14:11:46;;;;;;;0.60;0.60;;;16.30;16.50;;;;;;6188569;28;20848;-67
2023/03/11 14:14:56;;;;;;;1.00;0.90;;;16.00;17.40;;;;;;6204308;28;20476;-66
2023/03/11 14:18:27;;;;;;;1.00;0.30;;;15.50;17.40;;;;;;6203294;28;20463;-65
2023/03/11 14:21:31;;;;;;;0.80;0.80;;;15.10;18.00;;;;;;6203428;28;20472;-65
2023/03/11 14:24:36;;;;;;;0.70;0.60;;;14.80;18.00;;;;;;6191967;28;20976;-65
2023/03/11 14:27:46;;;;;;;1.30;0.87;;;14.50;18.70;;;;;;6199709;28;20935;-65
2023/03/11 14:30:56;;;;;;;0.60;0.60;;;14.20;18.70;;;;;;6227537;28;20476;-65
2023/03/11 14:34:03;;;;;;;0.70;0.70;;;13.90;19.10;;;;;;6226134;28;20487;-66
2023/03/11 14:37:25;;;;;;;1.33;0.83;;;13.60;18.90;;;;;;6226878;28;20797;-65
2023/03/11 14:40:32;;;;;;;0.60;0.60;;;13.40;20.00;;;;;;6226943;28;20510;-65
2023/03/11 14:43:41;;;;;;;0.80;0.80;;;13.30;20.10;;;;;;6227225;28;20472;-65
2023/03/11 14:46:46;;;;;;;2.30;0.83;;;13.20;19.90;;;;;;6225026;28;20472;-65
2023/03/11 14:49:51;;;;;;;3.20;0.73;;;13.10;20.50;;;;;;6202476;28;20492;-66
2023/03/11 14:53:00;;;;;;;1.23;0.70;;;12.90;20.30;;;;;;6202820;28;20469;-65
2023/03/11 14:56:17;;;;;;;0.70;0.70;;;12.70;20.30;;;;;;6202936;28;20958;-66
2023/03/11 14:59:26;;;;;;;1.13;0.73;;;12.70;20.40;;;;;;6202916;28;20473;-66
2023/03/11 15:02:45;;;;;;;1.17;0.97;;;12.60;20.80;;;;;;6203836;28;20752;-66
2023/03/11 15:05:52;;;;;;;0.50;0.50;;;12.40;21.20;;;;;;6203747;28;20461;-66
2023/03/11 15:08:59;;;;;;;1.13;0.87;;;12.40;21.20;;;;;;6202853;28;20464;-66
2023/03/11 15:12:05;;;;;;;1.07;0.83;;;12.30;21.50;;;;;;6202155;28;20460;-67
2023/03/11 15:15:25;;;;;;;0.60;0.60;;;12.30;21.30;;;;;;6202292;28;20849;-65
2023/03/11 15:18:32;;;;;;;1.00;0.53;;;12.10;21.20;;;;;;6202192;28;20903;-67
2023/03/11 15:21:35;;;;;;;2.00;0.80;;;12.00;21.30;;;;;;6202960;28;20741;-67
2023/03/11 15:24:40;;;;;;;2.10;0.80;;;11.80;21.90;;;;;;6202036;28;20487;-66
2023/03/11 15:27:46;;;;;;;0.80;0.80;;;11.70;21.50;;;;;;6203666;28;20479;-65
2023/03/11 15:30:49;;;;;;;1.23;0.67;;;11.80;22.10;;;;;;6184700;28;20474;-66
2023/03/11 15:33:55;;;;;;;2.63;0.73;;;11.90;21.90;;;;;;6178304;28;20473;-66
2023/03/11 15:37:18;;;;;;;0.80;0.80;;;11.90;21.80;;;;;;6177770;28;20474;-66
2023/03/11 15:40:26;;;;;;;1.20;0.80;;;11.80;22.40;;;;;;6177695;28;20973;-66
2023/03/11 15:43:49;;;;;;;4.20;0.67;;;11.80;22.10;;;;;;6177244;28;20492;-66
2023/03/11 15:46:53;;;;;;;0.70;0.70;;;11.60;22.00;;;;;;6177522;28;20489;-66
2023/03/11 15:49:56;;;;;;;0.80;0.80;;;11.50;21.70;;;;;;6176552;28;20989;-65
2023/03/11 15:52:59;;;;;;;1.10;0.87;;;11.50;21.90;;;;;;6181296;28;20489;-66
2023/03/11 15:56:12;;;;;;;0.70;0.70;;;11.40;22.50;;;;;;6187692;28;20487;-65
2023/03/11 15:59:17;;;;;;;1.47;0.80;;;11.20;22.90;;;;;;6188033;28;20493;-66
2023/03/11 16:02:24;;;;;;;0.70;0.70;;;11.10;23.00;;;;;;6186541;28;20476;-65
2023/03/11 16:05:28;;;;;;;1.53;1.43;;;11.00;23.50;;;;;;6185073;28;20641;-65
2023/03/11 16:08:33;;;;;;;1.13;1.00;;;10.80;24.00;;;;;;6187603;28;20483;-66
2023/03/11 16:11:38;;;;;;;0.70;0.63;;;10.80;23.90;;;;;;6189470;28;20474;-66
2023/03/11 16:14:44;;;;;;;0.80;0.80;;;10.70;24.10;;;;;;6185819;28;20465;-66
2023/03/11 16:17:50;;;;;;;0.90;0.90;;;10.60;23.40;;;;;;6184995;28;20465;-67